sensor_id;sensor_type;location;lat;lon;timestamp;P1;durP1;ratioP1;P2;durP2;ratioP2
13981;SDS011;7065;50.880;5.502;2023-04-24T00:00:54;8.75;;;7.90;;
13981;SDS011;7065;50.880;5.502;2023-04-24T00:03:22;9.93;;;6.85;;
13981;SDS011;7065;50.880;5.502;2023-04-24T00:05:48;11.52;;;9.15;;
13981;SDS011;7065;50.880;5.502;2023-04-24T00:08:14;14.18;;;8.43;;
13981;SDS011;7065;50.880;5.502;2023-04-24T00:10:40;12.27;;;8.55;;
13981;SDS011;7065;50.880;5.502;2023-04-24T00:13:06;11.27;;;8.88;;
13981;SDS011;7065;50.880;5.502;2023-04-24T00:15:32;11.77;;;9.07;;
13981;SDS011;7065;50.880;5.502;2023-04-24T00:17:58;13.50;;;9.48;;
13981;SDS011;7065;50.880;5.502;2023-04-24T00:20:23;13.32;;;10.32;;
13981;SDS011;7065;50.880;5.502;2023-04-24T00:22:49;13.00;;;10.13;;
13981;SDS011;7065;50.880;5.502;2023-04-24T00:25:15;14.38;;;10.57;;
13981;SDS011;7065;50.880;5.502;2023-04-24T00:27:40;17.92;;;10.80;;
13981;SDS011;7065;50.880;5.502;2023-04-24T00:30:06;16.95;;;11.00;;
13981;SDS011;7065;50.880;5.502;2023-04-24T00:32:32;16.50;;;12.05;;
13981;SDS011;7065;50.880;5.502;2023-04-24T00:34:58;16.15;;;11.55;;
13981;SDS011;7065;50.880;5.502;2023-04-24T00:37:24;14.80;;;11.40;;
13981;SDS011;7065;50.880;5.502;2023-04-24T00:39:50;15.10;;;11.32;;
13981;SDS011;7065;50.880;5.502;2023-04-24T00:42:15;16.80;;;11.77;;
13981;SDS011;7065;50.880;5.502;2023-04-24T00:44:41;17.17;;;12.30;;
13981;SDS011;7065;50.880;5.502;2023-04-24T00:47:07;15.95;;;12.02;;
13981;SDS011;7065;50.880;5.502;2023-04-24T00:49:33;17.98;;;13.10;;
13981;SDS011;7065;50.880;5.502;2023-04-24T00:51:59;16.52;;;12.65;;
13981;SDS011;7065;50.880;5.502;2023-04-24T00:54:25;17.45;;;13.07;;
13981;SDS011;7065;50.880;5.502;2023-04-24T00:56:51;16.95;;;12.82;;
13981;SDS011;7065;50.880;5.502;2023-04-24T00:59:17;18.67;;;12.80;;
13981;SDS011;7065;50.880;5.502;2023-04-24T01:01:43;16.33;;;13.32;;
13981;SDS011;7065;50.880;5.502;2023-04-24T01:04:11;14.93;;;12.75;;
13981;SDS011;7065;50.880;5.502;2023-04-24T01:06:40;20.27;;;13.57;;
13981;SDS011;7065;50.880;5.502;2023-04-24T01:09:09;19.00;;;12.93;;
13981;SDS011;7065;50.880;5.502;2023-04-24T01:11:37;18.83;;;13.18;;
13981;SDS011;7065;50.880;5.502;2023-04-24T01:14:02;17.77;;;12.48;;
13981;SDS011;7065;50.880;5.502;2023-04-24T01:16:29;19.60;;;13.85;;
13981;SDS011;7065;50.880;5.502;2023-04-24T01:18:54;19.48;;;14.02;;
13981;SDS011;7065;50.880;5.502;2023-04-24T01:21:20;19.25;;;13.93;;
13981;SDS011;7065;50.880;5.502;2023-04-24T01:23:46;17.45;;;13.15;;
13981;SDS011;7065;50.880;5.502;2023-04-24T01:26:13;20.45;;;14.93;;
13981;SDS011;7065;50.880;5.502;2023-04-24T01:28:42;18.42;;;13.73;;
13981;SDS011;7065;50.880;5.502;2023-04-24T01:31:08;18.48;;;13.50;;
13981;SDS011;7065;50.880;5.502;2023-04-24T01:33:34;17.70;;;13.90;;
13981;SDS011;7065;50.880;5.502;2023-04-24T01:36:00;15.70;;;13.02;;
13981;SDS011;7065;50.880;5.502;2023-04-24T01:38:26;21.10;;;14.20;;
13981;SDS011;7065;50.880;5.502;2023-04-24T01:40:52;18.02;;;13.57;;
13981;SDS011;7065;50.880;5.502;2023-04-24T01:43:18;17.08;;;12.25;;
13981;SDS011;7065;50.880;5.502;2023-04-24T01:45:43;18.17;;;13.15;;
13981;SDS011;7065;50.880;5.502;2023-04-24T01:48:09;16.80;;;12.32;;
13981;SDS011;7065;50.880;5.502;2023-04-24T01:50:37;19.77;;;13.20;;
13981;SDS011;7065;50.880;5.502;2023-04-24T01:53:03;19.38;;;12.00;;
13981;SDS011;7065;50.880;5.502;2023-04-24T01:55:29;15.10;;;12.88;;
13981;SDS011;7065;50.880;5.502;2023-04-24T01:57:55;17.63;;;12.98;;
13981;SDS011;7065;50.880;5.502;2023-04-24T02:00:21;17.20;;;12.52;;
13981;SDS011;7065;50.880;5.502;2023-04-24T02:02:47;16.15;;;12.35;;
13981;SDS011;7065;50.880;5.502;2023-04-24T02:05:13;17.35;;;13.25;;
13981;SDS011;7065;50.880;5.502;2023-04-24T02:07:39;15.85;;;13.30;;
13981;SDS011;7065;50.880;5.502;2023-04-24T02:10:05;19.25;;;13.55;;
13981;SDS011;7065;50.880;5.502;2023-04-24T02:12:31;16.45;;;13.20;;
13981;SDS011;7065;50.880;5.502;2023-04-24T02:14:57;15.85;;;13.43;;
13981;SDS011;7065;50.880;5.502;2023-04-24T02:17:22;18.67;;;13.50;;
13981;SDS011;7065;50.880;5.502;2023-04-24T02:19:48;20.95;;;13.77;;
13981;SDS011;7065;50.880;5.502;2023-04-24T02:22:14;19.42;;;13.45;;
13981;SDS011;7065;50.880;5.502;2023-04-24T02:24:40;16.95;;;13.32;;
13981;SDS011;7065;50.880;5.502;2023-04-24T02:27:05;18.00;;;13.75;;
13981;SDS011;7065;50.880;5.502;2023-04-24T02:29:31;15.25;;;13.40;;
13981;SDS011;7065;50.880;5.502;2023-04-24T02:31:57;17.58;;;12.80;;
13981;SDS011;7065;50.880;5.502;2023-04-24T02:34:23;17.17;;;12.90;;
13981;SDS011;7065;50.880;5.502;2023-04-24T02:36:49;16.02;;;13.45;;
13981;SDS011;7065;50.880;5.502;2023-04-24T02:39:15;18.98;;;13.25;;
13981;SDS011;7065;50.880;5.502;2023-04-24T02:41:43;14.65;;;12.77;;
13981;SDS011;7065;50.880;5.502;2023-04-24T02:44:09;16.38;;;13.27;;
13981;SDS011;7065;50.880;5.502;2023-04-24T02:46:35;18.25;;;12.75;;
13981;SDS011;7065;50.880;5.502;2023-04-24T02:49:01;16.17;;;12.07;;
13981;SDS011;7065;50.880;5.502;2023-04-24T02:51:27;16.38;;;12.30;;
13981;SDS011;7065;50.880;5.502;2023-04-24T02:53:53;15.40;;;11.82;;
13981;SDS011;7065;50.880;5.502;2023-04-24T02:56:19;14.52;;;11.23;;
13981;SDS011;7065;50.880;5.502;2023-04-24T02:58:45;12.02;;;10.32;;
13981;SDS011;7065;50.880;5.502;2023-04-24T03:01:11;14.02;;;11.05;;
13981;SDS011;7065;50.880;5.502;2023-04-24T03:03:37;13.38;;;11.57;;
13981;SDS011;7065;50.880;5.502;2023-04-24T03:06:03;16.10;;;12.32;;
13981;SDS011;7065;50.880;5.502;2023-04-24T03:08:30;17.33;;;13.35;;
13981;SDS011;7065;50.880;5.502;2023-04-24T03:10:57;16.70;;;12.98;;
13981;SDS011;7065;50.880;5.502;2023-04-24T03:13:22;15.10;;;12.80;;
13981;SDS011;7065;50.880;5.502;2023-04-24T03:15:48;20.50;;;13.65;;
13981;SDS011;7065;50.880;5.502;2023-04-24T03:18:14;20.75;;;14.65;;
13981;SDS011;7065;50.880;5.502;2023-04-24T03:20:39;19.98;;;15.02;;
13981;SDS011;7065;50.880;5.502;2023-04-24T03:23:05;17.05;;;14.15;;
13981;SDS011;7065;50.880;5.502;2023-04-24T03:25:31;21.90;;;14.07;;
13981;SDS011;7065;50.880;5.502;2023-04-24T03:27:57;17.50;;;15.25;;
13981;SDS011;7065;50.880;5.502;2023-04-24T03:30:23;15.77;;;13.45;;
13981;SDS011;7065;50.880;5.502;2023-04-24T03:32:48;19.13;;;14.77;;
13981;SDS011;7065;50.880;5.502;2023-04-24T03:35:14;19.05;;;15.10;;
13981;SDS011;7065;50.880;5.502;2023-04-24T03:37:40;22.58;;;14.45;;
13981;SDS011;7065;50.880;5.502;2023-04-24T03:40:06;18.92;;;14.52;;
13981;SDS011;7065;50.880;5.502;2023-04-24T03:42:33;17.33;;;13.85;;
13981;SDS011;7065;50.880;5.502;2023-04-24T03:44:58;18.38;;;13.63;;
13981;SDS011;7065;50.880;5.502;2023-04-24T03:47:24;19.48;;;13.85;;
13981;SDS011;7065;50.880;5.502;2023-04-24T03:49:50;17.02;;;13.35;;
13981;SDS011;7065;50.880;5.502;2023-04-24T03:52:16;18.95;;;13.45;;
13981;SDS011;7065;50.880;5.502;2023-04-24T03:54:41;18.20;;;13.98;;
13981;SDS011;7065;50.880;5.502;2023-04-24T03:57:07;17.88;;;14.57;;
13981;SDS011;7065;50.880;5.502;2023-04-24T03:59:33;17.42;;;14.55;;
13981;SDS011;7065;50.880;5.502;2023-04-24T04:01:58;15.95;;;13.30;;
13981;SDS011;7065;50.880;5.502;2023-04-24T04:04:24;17.88;;;14.40;;
13981;SDS011;7065;50.880;5.502;2023-04-24T04:06:50;18.85;;;13.35;;
13981;SDS011;7065;50.880;5.502;2023-04-24T04:09:16;18.45;;;14.07;;
13981;SDS011;7065;50.880;5.502;2023-04-24T04:11:42;16.88;;;13.45;;
13981;SDS011;7065;50.880;5.502;2023-04-24T04:14:07;16.23;;;13.57;;
13981;SDS011;7065;50.880;5.502;2023-04-24T04:16:33;17.45;;;12.38;;
13981;SDS011;7065;50.880;5.502;2023-04-24T04:19:01;16.00;;;13.55;;
13981;SDS011;7065;50.880;5.502;2023-04-24T04:21:27;14.90;;;13.30;;
13981;SDS011;7065;50.880;5.502;2023-04-24T04:23:54;16.58;;;13.65;;
13981;SDS011;7065;50.880;5.502;2023-04-24T04:26:19;19.50;;;13.90;;
13981;SDS011;7065;50.880;5.502;2023-04-24T04:28:46;17.23;;;13.90;;
13981;SDS011;7065;50.880;5.502;2023-04-24T04:31:12;15.32;;;13.00;;
13981;SDS011;7065;50.880;5.502;2023-04-24T04:33:38;16.77;;;14.70;;
13981;SDS011;7065;50.880;5.502;2023-04-24T04:36:04;16.80;;;14.02;;
13981;SDS011;7065;50.880;5.502;2023-04-24T04:38:30;16.73;;;13.88;;
13981;SDS011;7065;50.880;5.502;2023-04-24T04:40:56;18.88;;;13.75;;
13981;SDS011;7065;50.880;5.502;2023-04-24T04:43:23;19.23;;;14.73;;
13981;SDS011;7065;50.880;5.502;2023-04-24T04:45:49;17.38;;;14.70;;
13981;SDS011;7065;50.880;5.502;2023-04-24T04:48:16;17.27;;;15.05;;
13981;SDS011;7065;50.880;5.502;2023-04-24T04:50:43;16.70;;;13.63;;
13981;SDS011;7065;50.880;5.502;2023-04-24T04:53:09;16.70;;;14.25;;
13981;SDS011;7065;50.880;5.502;2023-04-24T04:55:35;17.13;;;13.75;;
13981;SDS011;7065;50.880;5.502;2023-04-24T04:58:01;19.35;;;13.65;;
13981;SDS011;7065;50.880;5.502;2023-04-24T05:00:27;21.90;;;15.05;;
13981;SDS011;7065;50.880;5.502;2023-04-24T05:02:58;20.15;;;13.68;;
13981;SDS011;7065;50.880;5.502;2023-04-24T05:05:24;20.77;;;13.70;;
13981;SDS011;7065;50.880;5.502;2023-04-24T05:07:50;17.17;;;13.15;;
13981;SDS011;7065;50.880;5.502;2023-04-24T05:10:16;20.40;;;13.45;;
13981;SDS011;7065;50.880;5.502;2023-04-24T05:12:41;16.40;;;13.02;;
13981;SDS011;7065;50.880;5.502;2023-04-24T05:15:07;15.23;;;12.38;;
13981;SDS011;7065;50.880;5.502;2023-04-24T05:17:33;16.63;;;12.32;;
13981;SDS011;7065;50.880;5.502;2023-04-24T05:19:59;13.30;;;11.57;;
13981;SDS011;7065;50.880;5.502;2023-04-24T05:22:25;12.95;;;10.77;;
13981;SDS011;7065;50.880;5.502;2023-04-24T05:24:51;11.55;;;10.32;;
13981;SDS011;7065;50.880;5.502;2023-04-24T05:27:16;14.40;;;10.82;;
13981;SDS011;7065;50.880;5.502;2023-04-24T05:29:43;12.85;;;10.77;;
13981;SDS011;7065;50.880;5.502;2023-04-24T05:32:09;12.43;;;10.65;;
13981;SDS011;7065;50.880;5.502;2023-04-24T05:34:35;12.80;;;10.38;;
13981;SDS011;7065;50.880;5.502;2023-04-24T05:37:01;13.75;;;10.13;;
13981;SDS011;7065;50.880;5.502;2023-04-24T05:39:28;11.77;;;9.80;;
13981;SDS011;7065;50.880;5.502;2023-04-24T05:41:54;13.52;;;10.88;;
13981;SDS011;7065;50.880;5.502;2023-04-24T05:44:22;12.60;;;10.25;;
13981;SDS011;7065;50.880;5.502;2023-04-24T05:46:48;12.43;;;10.20;;
13981;SDS011;7065;50.880;5.502;2023-04-24T05:49:14;12.57;;;10.25;;
13981;SDS011;7065;50.880;5.502;2023-04-24T05:51:39;13.23;;;9.73;;
13981;SDS011;7065;50.880;5.502;2023-04-24T05:54:06;12.25;;;9.50;;
13981;SDS011;7065;50.880;5.502;2023-04-24T05:56:31;13.25;;;9.57;;
13981;SDS011;7065;50.880;5.502;2023-04-24T05:58:57;9.77;;;8.35;;
13981;SDS011;7065;50.880;5.502;2023-04-24T06:01:23;9.52;;;7.45;;
13981;SDS011;7065;50.880;5.502;2023-04-24T06:03:50;9.25;;;7.43;;
13981;SDS011;7065;50.880;5.502;2023-04-24T06:06:15;8.48;;;7.45;;
13981;SDS011;7065;50.880;5.502;2023-04-24T06:08:42;10.73;;;7.47;;
13981;SDS011;7065;50.880;5.502;2023-04-24T06:11:09;9.60;;;7.80;;
13981;SDS011;7065;50.880;5.502;2023-04-24T06:13:34;11.80;;;8.43;;
13981;SDS011;7065;50.880;5.502;2023-04-24T06:16:00;10.20;;;8.52;;
13981;SDS011;7065;50.880;5.502;2023-04-24T06:18:26;10.05;;;8.65;;
13981;SDS011;7065;50.880;5.502;2023-04-24T06:20:52;10.30;;;9.10;;
13981;SDS011;7065;50.880;5.502;2023-04-24T06:23:17;12.20;;;9.23;;
13981;SDS011;7065;50.880;5.502;2023-04-24T06:25:43;14.05;;;9.45;;
13981;SDS011;7065;50.880;5.502;2023-04-24T06:28:09;12.02;;;9.35;;
13981;SDS011;7065;50.880;5.502;2023-04-24T06:30:34;12.60;;;9.23;;
13981;SDS011;7065;50.880;5.502;2023-04-24T06:33:00;10.45;;;8.98;;
13981;SDS011;7065;50.880;5.502;2023-04-24T06:35:26;14.45;;;9.98;;
13981;SDS011;7065;50.880;5.502;2023-04-24T06:37:51;13.18;;;9.77;;
13981;SDS011;7065;50.880;5.502;2023-04-24T06:40:17;12.55;;;9.25;;
13981;SDS011;7065;50.880;5.502;2023-04-24T06:42:43;12.75;;;10.13;;
13981;SDS011;7065;50.880;5.502;2023-04-24T06:45:09;12.20;;;9.52;;
13981;SDS011;7065;50.880;5.502;2023-04-24T06:47:36;15.73;;;11.20;;
13981;SDS011;7065;50.880;5.502;2023-04-24T06:50:03;15.60;;;11.55;;
13981;SDS011;7065;50.880;5.502;2023-04-24T06:52:29;14.32;;;11.10;;
13981;SDS011;7065;50.880;5.502;2023-04-24T06:55:01;13.82;;;11.85;;
13981;SDS011;7065;50.880;5.502;2023-04-24T06:57:27;17.65;;;10.85;;
13981;SDS011;7065;50.880;5.502;2023-04-24T06:59:54;15.77;;;11.50;;
13981;SDS011;7065;50.880;5.502;2023-04-24T07:02:19;18.45;;;12.13;;
13981;SDS011;7065;50.880;5.502;2023-04-24T07:04:45;17.58;;;13.02;;
13981;SDS011;7065;50.880;5.502;2023-04-24T07:07:12;15.18;;;11.80;;
13981;SDS011;7065;50.880;5.502;2023-04-24T07:09:39;19.63;;;12.15;;
13981;SDS011;7065;50.880;5.502;2023-04-24T07:12:07;16.90;;;13.02;;
13981;SDS011;7065;50.880;5.502;2023-04-24T07:14:33;18.55;;;13.35;;
13981;SDS011;7065;50.880;5.502;2023-04-24T07:16:59;19.70;;;13.93;;
13981;SDS011;7065;50.880;5.502;2023-04-24T07:19:24;20.02;;;13.93;;
13981;SDS011;7065;50.880;5.502;2023-04-24T07:21:50;20.90;;;14.52;;
13981;SDS011;7065;50.880;5.502;2023-04-24T07:24:16;20.85;;;14.98;;
13981;SDS011;7065;50.880;5.502;2023-04-24T07:26:41;22.50;;;15.95;;
13981;SDS011;7065;50.880;5.502;2023-04-24T07:29:07;22.65;;;15.13;;
13981;SDS011;7065;50.880;5.502;2023-04-24T07:31:33;24.58;;;16.85;;
13981;SDS011;7065;50.880;5.502;2023-04-24T07:33:59;22.92;;;15.80;;
13981;SDS011;7065;50.880;5.502;2023-04-24T07:36:24;24.88;;;15.85;;
13981;SDS011;7065;50.880;5.502;2023-04-24T07:38:51;26.27;;;16.85;;
13981;SDS011;7065;50.880;5.502;2023-04-24T07:41:17;24.42;;;16.65;;
13981;SDS011;7065;50.880;5.502;2023-04-24T07:43:44;26.88;;;16.58;;
13981;SDS011;7065;50.880;5.502;2023-04-24T07:46:10;21.30;;;16.55;;
13981;SDS011;7065;50.880;5.502;2023-04-24T07:48:36;24.17;;;16.00;;
13981;SDS011;7065;50.880;5.502;2023-04-24T07:51:02;23.60;;;16.52;;
13981;SDS011;7065;50.880;5.502;2023-04-24T07:53:28;24.30;;;16.60;;
13981;SDS011;7065;50.880;5.502;2023-04-24T07:55:54;28.80;;;17.10;;
13981;SDS011;7065;50.880;5.502;2023-04-24T07:58:20;23.17;;;15.95;;
13981;SDS011;7065;50.880;5.502;2023-04-24T08:00:46;21.65;;;16.75;;
13981;SDS011;7065;50.880;5.502;2023-04-24T08:03:12;24.50;;;16.42;;
13981;SDS011;7065;50.880;5.502;2023-04-24T08:05:38;24.85;;;18.48;;
13981;SDS011;7065;50.880;5.502;2023-04-24T08:08:04;28.48;;;17.98;;
13981;SDS011;7065;50.880;5.502;2023-04-24T08:10:29;24.55;;;18.08;;
13981;SDS011;7065;50.880;5.502;2023-04-24T08:12:55;28.45;;;19.45;;
13981;SDS011;7065;50.880;5.502;2023-04-24T08:15:21;27.35;;;19.00;;
13981;SDS011;7065;50.880;5.502;2023-04-24T08:17:47;28.33;;;19.50;;
13981;SDS011;7065;50.880;5.502;2023-04-24T08:20:12;30.38;;;20.48;;
13981;SDS011;7065;50.880;5.502;2023-04-24T08:22:41;29.90;;;20.05;;
13981;SDS011;7065;50.880;5.502;2023-04-24T08:25:08;28.13;;;19.70;;
13981;SDS011;7065;50.880;5.502;2023-04-24T08:27:35;28.17;;;19.50;;
13981;SDS011;7065;50.880;5.502;2023-04-24T08:30:02;26.40;;;17.75;;
13981;SDS011;7065;50.880;5.502;2023-04-24T08:32:28;34.03;;;18.92;;
13981;SDS011;7065;50.880;5.502;2023-04-24T08:34:54;31.10;;;19.50;;
13981;SDS011;7065;50.880;5.502;2023-04-24T08:37:21;27.02;;;18.52;;
13981;SDS011;7065;50.880;5.502;2023-04-24T08:39:51;24.95;;;17.75;;
13981;SDS011;7065;50.880;5.502;2023-04-24T08:42:18;23.25;;;17.08;;
13981;SDS011;7065;50.880;5.502;2023-04-24T08:44:44;28.05;;;17.02;;
13981;SDS011;7065;50.880;5.502;2023-04-24T08:47:10;32.65;;;18.48;;
13981;SDS011;7065;50.880;5.502;2023-04-24T08:49:37;26.20;;;15.95;;
13981;SDS011;7065;50.880;5.502;2023-04-24T08:52:04;28.02;;;16.02;;
13981;SDS011;7065;50.880;5.502;2023-04-24T08:54:30;20.15;;;15.75;;
13981;SDS011;7065;50.880;5.502;2023-04-24T08:57:00;27.83;;;14.80;;
13981;SDS011;7065;50.880;5.502;2023-04-24T08:59:28;23.83;;;15.25;;
13981;SDS011;7065;50.880;5.502;2023-04-24T09:01:55;25.13;;;13.38;;
13981;SDS011;7065;50.880;5.502;2023-04-24T09:04:22;20.50;;;11.50;;
13981;SDS011;7065;50.880;5.502;2023-04-24T09:06:49;18.85;;;11.95;;
13981;SDS011;7065;50.880;5.502;2023-04-24T09:09:20;14.82;;;11.25;;
13981;SDS011;7065;50.880;5.502;2023-04-24T09:11:48;19.25;;;11.60;;
13981;SDS011;7065;50.880;5.502;2023-04-24T09:14:15;16.60;;;10.57;;
13981;SDS011;7065;50.880;5.502;2023-04-24T09:16:41;14.75;;;9.63;;
13981;SDS011;7065;50.880;5.502;2023-04-24T09:19:07;14.95;;;9.30;;
13981;SDS011;7065;50.880;5.502;2023-04-24T09:21:33;13.93;;;8.00;;
13981;SDS011;7065;50.880;5.502;2023-04-24T09:24:01;13.07;;;8.35;;
13981;SDS011;7065;50.880;5.502;2023-04-24T09:26:30;14.45;;;8.18;;
13981;SDS011;7065;50.880;5.502;2023-04-24T09:28:57;15.43;;;7.70;;
13981;SDS011;7065;50.880;5.502;2023-04-24T09:31:23;9.55;;;6.80;;
13981;SDS011;7065;50.880;5.502;2023-04-24T09:33:55;12.70;;;7.28;;
13981;SDS011;7065;50.880;5.502;2023-04-24T09:36:36;14.57;;;7.40;;
13981;SDS011;7065;50.880;5.502;2023-04-24T09:39:10;12.40;;;7.97;;
13981;SDS011;7065;50.880;5.502;2023-04-24T09:44:27;15.48;;;9.25;;
13981;SDS011;7065;50.880;5.502;2023-04-24T09:46:57;16.65;;;9.60;;
13981;SDS011;7065;50.880;5.502;2023-04-24T09:49:24;22.20;;;10.23;;
13981;SDS011;7065;50.880;5.502;2023-04-24T09:51:51;16.40;;;10.10;;
13981;SDS011;7065;50.880;5.502;2023-04-24T09:54:26;17.20;;;8.60;;
13981;SDS011;7065;50.880;5.502;2023-04-24T09:56:52;14.48;;;8.43;;
13981;SDS011;7065;50.880;5.502;2023-04-24T09:59:21;14.30;;;8.60;;
13981;SDS011;7065;50.880;5.502;2023-04-24T10:01:47;16.77;;;9.20;;
13981;SDS011;7065;50.880;5.502;2023-04-24T10:04:17;17.38;;;9.63;;
13981;SDS011;7065;50.880;5.502;2023-04-24T10:06:45;14.63;;;9.50;;
13981;SDS011;7065;50.880;5.502;2023-04-24T10:09:12;15.25;;;10.38;;
13981;SDS011;7065;50.880;5.502;2023-04-24T10:11:42;13.95;;;10.43;;
13981;SDS011;7065;50.880;5.502;2023-04-24T10:14:11;15.07;;;9.48;;
13981;SDS011;7065;50.880;5.502;2023-04-24T10:16:39;14.27;;;9.23;;
13981;SDS011;7065;50.880;5.502;2023-04-24T10:19:05;15.50;;;8.85;;
13981;SDS011;7065;50.880;5.502;2023-04-24T10:21:32;16.63;;;8.85;;
13981;SDS011;7065;50.880;5.502;2023-04-24T10:23:59;11.40;;;7.50;;
13981;SDS011;7065;50.880;5.502;2023-04-24T10:26:28;12.77;;;7.90;;
13981;SDS011;7065;50.880;5.502;2023-04-24T10:28:54;12.80;;;7.95;;
13981;SDS011;7065;50.880;5.502;2023-04-24T10:31:22;12.60;;;8.02;;
13981;SDS011;7065;50.880;5.502;2023-04-24T10:33:49;12.63;;;7.72;;
13981;SDS011;7065;50.880;5.502;2023-04-24T10:36:16;12.82;;;8.18;;
13981;SDS011;7065;50.880;5.502;2023-04-24T10:38:43;12.85;;;8.00;;
13981;SDS011;7065;50.880;5.502;2023-04-24T10:41:12;14.05;;;7.63;;
13981;SDS011;7065;50.880;5.502;2023-04-24T10:43:44;12.43;;;7.30;;
13981;SDS011;7065;50.880;5.502;2023-04-24T10:46:10;13.23;;;6.45;;
13981;SDS011;7065;50.880;5.502;2023-04-24T10:48:44;11.38;;;6.20;;
13981;SDS011;7065;50.880;5.502;2023-04-24T10:51:21;10.60;;;6.00;;
13981;SDS011;7065;50.880;5.502;2023-04-24T10:53:49;11.93;;;6.55;;
13981;SDS011;7065;50.880;5.502;2023-04-24T10:56:15;15.52;;;6.90;;
13981;SDS011;7065;50.880;5.502;2023-04-24T10:58:42;12.20;;;6.80;;
13981;SDS011;7065;50.880;5.502;2023-04-24T11:03:59;11.32;;;6.45;;
13981;SDS011;7065;50.880;5.502;2023-04-24T11:06:30;10.98;;;6.35;;
13981;SDS011;7065;50.880;5.502;2023-04-24T11:09:04;10.85;;;6.75;;
13981;SDS011;7065;50.880;5.502;2023-04-24T11:11:32;10.40;;;6.45;;
13981;SDS011;7065;50.880;5.502;2023-04-24T11:16:28;9.65;;;6.82;;
13981;SDS011;7065;50.880;5.502;2023-04-24T11:19:06;8.98;;;6.57;;
13981;SDS011;7065;50.880;5.502;2023-04-24T11:21:47;10.15;;;6.38;;
13981;SDS011;7065;50.880;5.502;2023-04-24T11:27:13;10.50;;;7.25;;
13981;SDS011;7065;50.880;5.502;2023-04-24T11:32:34;10.63;;;6.45;;
13981;SDS011;7065;50.880;5.502;2023-04-24T11:35:21;12.07;;;5.78;;
13981;SDS011;7065;50.880;5.502;2023-04-24T11:37:53;9.25;;;4.80;;
13981;SDS011;7065;50.880;5.502;2023-04-24T11:40:19;9.48;;;5.88;;
13981;SDS011;7065;50.880;5.502;2023-04-24T11:42:48;7.55;;;4.53;;
13981;SDS011;7065;50.880;5.502;2023-04-24T11:45:18;7.85;;;4.32;;
13981;SDS011;7065;50.880;5.502;2023-04-24T11:47:49;7.63;;;5.43;;
13981;SDS011;7065;50.880;5.502;2023-04-24T11:50:16;10.20;;;5.85;;
13981;SDS011;7065;50.880;5.502;2023-04-24T11:52:44;9.40;;;5.55;;
13981;SDS011;7065;50.880;5.502;2023-04-24T11:57:39;6.30;;;5.10;;
13981;SDS011;7065;50.880;5.502;2023-04-24T12:00:14;6.10;;;4.85;;
13981;SDS011;7065;50.880;5.502;2023-04-24T12:02:50;7.13;;;5.13;;
13981;SDS011;7065;50.880;5.502;2023-04-24T12:05:20;9.00;;;5.10;;
13981;SDS011;7065;50.880;5.502;2023-04-24T12:07:46;8.07;;;5.22;;
13981;SDS011;7065;50.880;5.502;2023-04-24T12:10:12;8.45;;;5.57;;
13981;SDS011;7065;50.880;5.502;2023-04-24T12:12:37;8.40;;;5.38;;
13981;SDS011;7065;50.880;5.502;2023-04-24T12:15:06;5.65;;;4.60;;
13981;SDS011;7065;50.880;5.502;2023-04-24T12:17:33;7.80;;;5.40;;
13981;SDS011;7065;50.880;5.502;2023-04-24T12:20:05;6.05;;;4.90;;
13981;SDS011;7065;50.880;5.502;2023-04-24T12:22:51;5.95;;;4.45;;
13981;SDS011;7065;50.880;5.502;2023-04-24T12:25:22;7.05;;;4.63;;
13981;SDS011;7065;50.880;5.502;2023-04-24T12:27:53;10.63;;;4.88;;
13981;SDS011;7065;50.880;5.502;2023-04-24T12:30:20;7.72;;;4.95;;
13981;SDS011;7065;50.880;5.502;2023-04-24T12:32:51;8.50;;;4.47;;
13981;SDS011;7065;50.880;5.502;2023-04-24T12:35:20;7.65;;;5.03;;
13981;SDS011;7065;50.880;5.502;2023-04-24T12:37:47;7.55;;;4.80;;
13981;SDS011;7065;50.880;5.502;2023-04-24T12:40:13;7.78;;;4.32;;
13981;SDS011;7065;50.880;5.502;2023-04-24T12:42:57;4.60;;;4.10;;
13981;SDS011;7065;50.880;5.502;2023-04-24T12:45:23;7.18;;;5.10;;
13981;SDS011;7065;50.880;5.502;2023-04-24T12:47:50;8.73;;;4.35;;
13981;SDS011;7065;50.880;5.502;2023-04-24T12:50:16;4.63;;;4.05;;
13981;SDS011;7065;50.880;5.502;2023-04-24T12:52:42;9.70;;;4.88;;
13981;SDS011;7065;50.880;5.502;2023-04-24T12:55:08;5.68;;;4.47;;
13981;SDS011;7065;50.880;5.502;2023-04-24T12:57:35;10.90;;;4.78;;
13981;SDS011;7065;50.880;5.502;2023-04-24T13:00:02;10.23;;;4.78;;
13981;SDS011;7065;50.880;5.502;2023-04-24T13:02:29;6.38;;;4.53;;
13981;SDS011;7065;50.880;5.502;2023-04-24T13:04:56;8.57;;;4.43;;
13981;SDS011;7065;50.880;5.502;2023-04-24T13:07:25;6.88;;;4.32;;
13981;SDS011;7065;50.880;5.502;2023-04-24T13:09:52;6.35;;;4.80;;
13981;SDS011;7065;50.880;5.502;2023-04-24T13:12:19;7.20;;;4.32;;
13981;SDS011;7065;50.880;5.502;2023-04-24T13:14:45;8.15;;;4.63;;
13981;SDS011;7065;50.880;5.502;2023-04-24T13:17:11;6.07;;;4.03;;
13981;SDS011;7065;50.880;5.502;2023-04-24T13:19:38;6.25;;;4.40;;
13981;SDS011;7065;50.880;5.502;2023-04-24T13:22:05;5.15;;;4.65;;
13981;SDS011;7065;50.880;5.502;2023-04-24T13:24:31;8.65;;;4.32;;
13981;SDS011;7065;50.880;5.502;2023-04-24T13:26:58;5.60;;;4.10;;
13981;SDS011;7065;50.880;5.502;2023-04-24T13:29:24;6.50;;;4.32;;
13981;SDS011;7065;50.880;5.502;2023-04-24T13:31:50;5.10;;;4.20;;
13981;SDS011;7065;50.880;5.502;2023-04-24T13:34:16;7.93;;;4.47;;
13981;SDS011;7065;50.880;5.502;2023-04-24T13:36:42;6.20;;;4.35;;
13981;SDS011;7065;50.880;5.502;2023-04-24T13:39:08;5.20;;;3.80;;
13981;SDS011;7065;50.880;5.502;2023-04-24T13:41:34;6.88;;;4.25;;
13981;SDS011;7065;50.880;5.502;2023-04-24T13:44:01;4.78;;;4.28;;
13981;SDS011;7065;50.880;5.502;2023-04-24T13:46:27;5.45;;;4.10;;
13981;SDS011;7065;50.880;5.502;2023-04-24T13:48:53;6.80;;;4.07;;
13981;SDS011;7065;50.880;5.502;2023-04-24T13:51:18;5.63;;;4.32;;
13981;SDS011;7065;50.880;5.502;2023-04-24T13:53:44;5.72;;;4.40;;
13981;SDS011;7065;50.880;5.502;2023-04-24T13:56:10;5.13;;;4.22;;
13981;SDS011;7065;50.880;5.502;2023-04-24T13:58:37;5.68;;;4.25;;
13981;SDS011;7065;50.880;5.502;2023-04-24T14:01:03;7.43;;;4.28;;
13981;SDS011;7065;50.880;5.502;2023-04-24T14:03:29;5.32;;;4.32;;
13981;SDS011;7065;50.880;5.502;2023-04-24T14:05:55;5.78;;;4.32;;
13981;SDS011;7065;50.880;5.502;2023-04-24T14:08:20;5.20;;;4.70;;
13981;SDS011;7065;50.880;5.502;2023-04-24T14:10:46;6.05;;;3.90;;
13981;SDS011;7065;50.880;5.502;2023-04-24T14:13:12;7.30;;;4.78;;
13981;SDS011;7065;50.880;5.502;2023-04-24T14:15:38;6.93;;;4.45;;
13981;SDS011;7065;50.880;5.502;2023-04-24T14:18:04;6.45;;;4.65;;
13981;SDS011;7065;50.880;5.502;2023-04-24T14:20:30;6.15;;;3.80;;
13981;SDS011;7065;50.880;5.502;2023-04-24T14:22:56;7.40;;;4.28;;
13981;SDS011;7065;50.880;5.502;2023-04-24T14:25:24;4.53;;;3.83;;
13981;SDS011;7065;50.880;5.502;2023-04-24T14:27:50;7.85;;;4.05;;
13981;SDS011;7065;50.880;5.502;2023-04-24T14:30:16;5.03;;;3.80;;
13981;SDS011;7065;50.880;5.502;2023-04-24T14:32:42;7.05;;;3.78;;
13981;SDS011;7065;50.880;5.502;2023-04-24T14:35:07;4.85;;;3.78;;
13981;SDS011;7065;50.880;5.502;2023-04-24T14:37:33;4.88;;;3.67;;
13981;SDS011;7065;50.880;5.502;2023-04-24T14:39:59;4.70;;;3.83;;
13981;SDS011;7065;50.880;5.502;2023-04-24T14:42:25;6.82;;;4.05;;
13981;SDS011;7065;50.880;5.502;2023-04-24T14:44:50;6.90;;;3.80;;
13981;SDS011;7065;50.880;5.502;2023-04-24T14:47:16;9.15;;;4.07;;
13981;SDS011;7065;50.880;5.502;2023-04-24T14:49:42;5.95;;;3.90;;
13981;SDS011;7065;50.880;5.502;2023-04-24T14:52:09;6.68;;;4.20;;
13981;SDS011;7065;50.880;5.502;2023-04-24T14:54:35;5.55;;;4.10;;
13981;SDS011;7065;50.880;5.502;2023-04-24T14:57:00;7.13;;;4.22;;